Flight Track Log - Related Links

Times and Time Zones

All times are in EST time to prevent confusion due to time zone crossing. See the ASQ5740 flight status page for this flight to view local times or setup timezone preferences in your user account.

Time Position Orientation Groundspeed Altitude Reporting Facility
EST Latitude Longitude Course Direction KTS MPH feet Rate Location/Type
Wed 01:04:21 PM 38.9333 -77.5333 233° Southwest 212 244 2,600  Level Potomac TRACON
Wed 01:05:21 PM 38.8667 -77.5667 201° Southwest 254 292 5,100 2,950 Climbing Potomac TRACON
Wed 01:06:21 PM 38.8000 -77.6000 201° Southwest 269 310 8,500 2,376 Climbing Potomac TRACON
Wed 01:07:00 PM 38.6596 -77.8234 226° Southwest  Level Estimated
Wed 01:07:50 PM 38.6897 -77.6369 195° South 284 327 11,000  Level Washington Center
Wed 01:08:00 PM 38.5875 -77.9138 238° Southwest  Level Estimated
Wed 01:08:51 PM 38.5953 -77.6636 192° South 320 368 12,800  Level Washington Center
Wed 01:09:00 PM 38.5153 -78.0040 233° Southwest  Level Estimated
Wed 01:09:52 PM 38.5050 -77.7089 201° Southwest 341 392 14,300  Level Washington Center
Wed 01:10:50 PM 38.4200 -77.7886 216° Southwest 361 415 15,800 1,475 Climbing Washington Center
Wed 01:11:50 PM 38.3331 -77.8653 215° Southwest 380 437 17,200 1,131 Climbing Washington Center
Wed 01:12:52 PM 38.2461 -77.9475 217° Southwest 385 443 18,100 934 Climbing Washington Center
Wed 01:13:52 PM 38.1589 -78.0317 217° Southwest 391 450 19,100 1,000 Climbing Washington Center
Wed 01:14:52 PM 38.0878 -78.1378 230° Southwest 391 450 20,100 966 Climbing Washington Center
Wed 01:15:50 PM 38.0019 -78.2481 225° Southwest 401 461 21,000 1,008 Climbing Washington Center
Wed 01:16:51 PM 37.9414 -78.3511 233° Southwest 406 467 22,100 1,033 Climbing Washington Center
Wed 01:17:52 PM 37.8658 -78.4564 228° Southwest 406 467 23,100 1,109 Climbing Washington Center
Wed 01:18:50 PM 37.7836 -78.5742 229° Southwest 406 467 24,300 1,017 Climbing Washington Center
Wed 01:19:50 PM 37.7103 -78.6761 228° Southwest 401 461 25,100 787 Climbing Washington Center
Wed 01:20:52 PM 37.6367 -78.7808 228° Southwest 401 461 25,900 787 Climbing Washington Center
Wed 01:21:52 PM 37.5606 -78.8875 228° Southwest 401 461 26,700 814 Climbing Washington Center
Wed 01:22:50 PM 37.4847 -78.9889 227° Southwest 401 461 27,500 655 Climbing Washington Center
Wed 01:23:51 PM 37.4175 -79.0853 229° Southwest 401 461 28,000 248 Climbing Washington Center
Wed 01:24:51 PM 37.3414 -79.1889 227° Southwest 401 461 28,000  Level Washington Center
Wed 01:25:50 PM 37.2608 -79.2975 227° Southwest 412 474 28,000  Level Washington Center
Wed 01:26:50 PM 37.1800 -79.4108 228° Southwest 424 488 28,000  Level Washington Center
Wed 01:27:51 PM 37.1014 -79.5214 228° Southwest 429 494 28,000  Level Washington Center
Wed 01:28:52 PM 37.0183 -79.6317 227° Southwest 429 494 28,000  Level Washington Center
Wed 01:29:52 PM 36.9394 -79.7419 228° Southwest 429 494 28,000  Level Washington Center
Wed 01:30:50 PM 36.8517 -79.8644 228° Southwest 429 494 28,000  Level Washington Center
Wed 01:32:23 PM 36.7328 -80.0189 226° Southwest 434 499 28,000  Level Atlanta Center
Wed 01:33:23 PM 36.6428 -80.1397 227° Southwest 434 499 28,000  Level Atlanta Center
Wed 01:34:23 PM 36.5628 -80.2497 228° Southwest 434 499 28,000 -400 Level Atlanta Center
Wed 01:35:23 PM 36.4522 -80.3117 204° Southwest 434 499 27,200 -1,000 Descending Atlanta Center
Wed 01:36:23 PM 36.3325 -80.3533 196° South 436 502 26,000 -1,300 Descending Atlanta Center
Wed 01:37:23 PM 36.2250 -80.3864 194° South 446 513 24,600 -1,400 Descending Atlanta Center
Wed 01:38:23 PM 36.1094 -80.4303 197° South 440 506 23,200 -1,350 Descending Atlanta Center
Wed 01:39:23 PM 35.9958 -80.4686 195° South 435 501 21,900 -1,350 Descending Atlanta Center
Wed 01:40:23 PM 35.8844 -80.5069 196° South 429 494 20,500 -950 Descending Atlanta Center
Wed 01:41:23 PM 35.7628 -80.5531 197° South 423 487 20,000 -250 Descending Atlanta Center
Wed 01:42:23 PM 35.7006 -80.6453 230° Southwest 395 455 20,000  Level Atlanta Center
Wed 01:42:59 PM 35.6653 -80.7286 242° Southwest 388 447 20,000 -400 Level Atlanta Center
Wed 01:43:23 PM 35.6372 -80.7706 231° Southwest 382 440 19,600 -1,574 Descending Atlanta Center
Wed 01:44:00 PM 35.6039 -80.8511 243° Southwest 395 455 18,400 -1,700 Descending Atlanta Center
Wed 01:44:23 PM 35.5775 -80.8828 224° Southwest 395 455 17,900 -1,377 Descending Atlanta Center
Wed 01:45:01 PM 35.5419 -80.9633 242° Southwest 400 460 17,000 -1,500 Descending Atlanta Center
Wed 01:45:23 PM 35.5219 -80.9972 234° Southwest 400 460 16,400 -1,869 Descending Atlanta Center
Wed 01:46:02 PM 35.4864 -81.0725 240° Southwest 378 435 15,100 -1,400 Descending Atlanta Center
Wed 01:46:23 PM 35.4700 -81.0936 226° Southwest 393 452 15,000 -590 Descending Atlanta Center
Wed 01:47:03 PM 35.4325 -81.1764 241° Southwest 357 411 14,500 -800 Descending Atlanta Center
Wed 01:47:23 PM 35.4206 -81.2047 243° Southwest 380 437 14,200 -1,672 Descending Atlanta Center
Wed 01:48:04 PM 35.3744 -81.2828 234° Southwest 344 396 12,800 -1,900 Descending Atlanta Center
Wed 01:48:23 PM 35.3603 -81.3114 239° Southwest 367 422 12,300 -1,475 Descending Atlanta Center
Wed 01:49:05 PM 35.3244 -81.3786 237° Southwest 337 388 11,300 -1,400 Descending Atlanta Center
Wed 01:49:23 PM 35.3061 -81.4022 226° Southwest 354 407 10,900 -1,000 Descending Atlanta Center
Wed 01:50:23 PM 35.2539 -81.5081 239° Southwest 354 407 10,000 -450 Descending Atlanta Center
Wed 01:51:23 PM 35.2039 -81.6036 237° Southwest 347 399 10,000  Level Atlanta Center
Wed 01:52:23 PM 35.1556 -81.6942 237° Southwest 342 394 10,000  Level Atlanta Center
Wed 01:53:23 PM 35.1050 -81.7817 235° Southwest 332 382 10,000 -350 Level Atlanta Center
Wed 01:54:23 PM 35.0561 -81.8542 231° Southwest 308 354 9,300 -850 Descending Atlanta Center
Wed 01:55:23 PM 35.0008 -81.9164 223° Southwest 288 331 8,300 -1,000 Descending Atlanta Center
Wed 01:56:23 PM 34.9478 -81.9786 224° Southwest 277 319 7,300 -1,000 Descending Atlanta Center
Wed 01:57:23 PM 34.8964 -82.0356 222° Southwest 266 306 6,300 -1,000 Descending Atlanta Center
Wed 01:58:23 PM 34.8453 -82.1000 226° Southwest 266 306 5,300 -1,050 Descending Atlanta Center
Wed 01:59:23 PM 34.7983 -82.1569 225° Southwest 260 299 4,200 -1,100 Descending Atlanta Center
Wed 02:00:23 PM 34.8033 -82.2200 276° West 187 215 3,100 -900 Descending Atlanta Center
Wed 02:01:23 PM 34.8308 -82.2472 321° Northwest 159 183 2,400 -700 Descending Atlanta Center

Login

Don't have an account? Register now (free) for customized features, flight alerts, and more!